Time;durP1;ratioP1;P1;durP2;ratioP2;P2;SDS_P1;SDS_P2;PMS_P1;PMS_P2;Temp;Humidity;BMP_temperature;BMP_pressure;BME280_temperature;BME280_humidity;BME280_pressure;Samples;Min_cycle;Max_cycle;Signal;HPM_P1;HPM_P2
2024/01/11 00:00:44;;;;;;;48.63;22.10;;;-3.10;99.90;;;;;;5094174;28;20236;-57
2024/01/11 00:03:13;;;;;;;46.08;22.15;;;-3.10;99.90;;;;;;5093901;28;20200;-57
2024/01/11 00:05:41;;;;;;;46.40;20.85;;;-3.10;99.90;;;;;;5093525;28;20232;-55
2024/01/11 00:08:09;;;;;;;46.60;21.90;;;-3.10;99.90;;;;;;5092065;28;20200;-56
2024/01/11 00:10:37;;;;;;;44.25;21.60;;;-3.20;99.90;;;;;;5093968;28;20228;-55
2024/01/11 00:13:05;;;;;;;54.10;22.20;;;-3.20;99.90;;;;;;5089276;28;20693;-55
2024/01/11 00:15:33;;;;;;;49.28;21.40;;;-3.20;99.90;;;;;;5093586;28;20878;-55
2024/01/11 00:18:02;;;;;;;50.03;20.75;;;-3.20;99.90;;;;;;5093997;28;20211;-55
2024/01/11 00:20:31;;;;;;;47.65;20.98;;;-3.20;99.90;;;;;;5093821;28;20221;-56
2024/01/11 00:22:59;;;;;;;46.47;21.42;;;-3.20;99.90;;;;;;5093629;28;20254;-55
2024/01/11 00:25:27;;;;;;;43.97;20.45;;;-3.20;99.90;;;;;;5093766;28;20205;-55
2024/01/11 00:27:55;;;;;;;46.63;20.88;;;-3.20;99.90;;;;;;5092795;28;20220;-55
2024/01/11 00:30:23;;;;;;;44.88;20.83;;;-3.20;99.90;;;;;;5093486;28;20224;-55
2024/01/11 00:32:51;;;;;;;43.50;20.50;;;-3.20;99.90;;;;;;5093868;28;20205;-56
2024/01/11 00:35:19;;;;;;;46.20;21.15;;;-3.20;99.90;;;;;;5093665;28;20237;-55
2024/01/11 00:37:49;;;;;;;46.83;21.02;;;-3.30;99.90;;;;;;5093615;28;20274;-55
2024/01/11 00:40:17;;;;;;;42.58;21.27;;;-3.20;99.90;;;;;;5093303;28;20224;-55
2024/01/11 00:42:44;;;;;;;46.10;20.52;;;-3.20;99.90;;;;;;5093262;28;20269;-56
2024/01/11 00:45:12;;;;;;;46.83;21.65;;;-3.20;99.90;;;;;;5093429;28;20677;-58
2024/01/11 00:47:40;;;;;;;45.58;21.33;;;-3.20;99.90;;;;;;5093851;28;20293;-57
2024/01/11 00:50:09;;;;;;;45.15;20.30;;;-3.20;99.90;;;;;;5093185;28;20224;-57
2024/01/11 00:52:38;;;;;;;49.15;21.25;;;-3.20;99.90;;;;;;5093604;28;20204;-57
2024/01/11 00:55:08;;;;;;;46.28;20.95;;;-3.20;99.90;;;;;;5089455;28;20307;-56
2024/01/11 00:57:36;;;;;;;48.28;21.45;;;-3.20;99.90;;;;;;5089455;28;20208;-55
2024/01/11 01:00:04;;;;;;;43.85;21.02;;;-3.20;99.90;;;;;;5093252;28;20299;-56
2024/01/11 01:02:32;;;;;;;46.95;21.50;;;-3.20;99.90;;;;;;5092926;28;20228;-55
2024/01/11 01:05:00;;;;;;;41.28;21.17;;;-3.20;99.90;;;;;;5093194;28;20645;-55
2024/01/11 01:07:28;;;;;;;44.45;20.77;;;-3.20;99.90;;;;;;5092869;28;20201;-55
2024/01/11 01:09:56;;;;;;;44.08;20.25;;;-3.20;99.90;;;;;;5092765;28;20655;-55
2024/01/11 01:12:25;;;;;;;42.25;20.25;;;-3.20;99.90;;;;;;5093440;28;20247;-55
2024/01/11 01:14:53;;;;;;;50.15;21.10;;;-3.20;99.90;;;;;;5092919;28;20599;-58
2024/01/11 01:17:21;;;;;;;55.13;21.48;;;-3.20;99.90;;;;;;5093082;28;20258;-56
2024/01/11 01:19:49;;;;;;;46.00;21.55;;;-3.20;99.90;;;;;;5092469;28;20232;-57
2024/01/11 01:22:17;;;;;;;45.53;20.60;;;-3.20;99.90;;;;;;5091351;28;20208;-55
2024/01/11 01:24:45;;;;;;;44.60;20.30;;;-3.20;99.90;;;;;;5092775;28;20567;-55
2024/01/11 01:27:13;;;;;;;45.33;20.08;;;-3.20;99.90;;;;;;5092968;28;20228;-61
2024/01/11 01:29:42;;;;;;;48.75;20.13;;;-3.20;99.90;;;;;;5092519;28;20283;-58
2024/01/11 01:32:10;;;;;;;44.08;19.75;;;-3.20;99.90;;;;;;5092832;28;20197;-58
2024/01/11 01:34:38;;;;;;;43.05;20.45;;;-3.30;99.90;;;;;;5092350;28;20227;-58
2024/01/11 01:37:06;;;;;;;42.13;19.35;;;-3.30;99.90;;;;;;5089248;28;20197;-58
2024/01/11 01:39:34;;;;;;;44.58;20.08;;;-3.30;99.90;;;;;;5091183;28;20260;-59
2024/01/11 01:42:01;;;;;;;44.55;20.13;;;-3.30;99.90;;;;;;5092752;28;20232;-58
2024/01/11 01:44:30;;;;;;;46.25;21.42;;;-3.40;99.90;;;;;;5092035;28;20204;-58
2024/01/11 01:46:59;;;;;;;46.30;20.80;;;-3.30;99.90;;;;;;5092376;28;20655;-57
2024/01/11 01:49:27;;;;;;;45.83;21.15;;;-3.30;99.90;;;;;;5088297;28;20231;-57
2024/01/11 01:51:55;;;;;;;44.13;20.02;;;-3.30;99.90;;;;;;5092486;28;20205;-58
2024/01/11 01:54:23;;;;;;;46.95;20.95;;;-3.30;99.90;;;;;;5091869;28;20232;-58
2024/01/11 01:56:51;;;;;;;48.45;21.88;;;-3.30;99.90;;;;;;5092040;28;20726;-57
2024/01/11 01:59:19;;;;;;;41.90;20.13;;;-3.30;99.90;;;;;;5091810;28;20671;-58
2024/01/11 02:01:47;;;;;;;48.85;20.75;;;-3.30;99.90;;;;;;5091663;28;20246;-58
2024/01/11 02:04:16;;;;;;;47.70;21.90;;;-3.30;99.90;;;;;;5087704;28;20201;-58
2024/01/11 02:06:44;;;;;;;44.13;21.35;;;-3.30;99.90;;;;;;5092277;28;20289;-57
2024/01/11 02:09:13;;;;;;;47.40;19.75;;;-3.30;99.90;;;;;;5089049;28;20307;-58
2024/01/11 02:11:41;;;;;;;42.03;20.92;;;-3.30;99.90;;;;;;5092246;28;20205;-58
2024/01/11 02:14:11;;;;;;;45.00;21.45;;;-3.30;99.90;;;;;;5091605;28;20299;-58
2024/01/11 02:16:39;;;;;;;46.28;20.45;;;-3.30;99.90;;;;;;5091783;28;20228;-59
2024/01/11 02:19:07;;;;;;;43.47;20.63;;;-3.30;99.90;;;;;;5091614;28;20675;-57
2024/01/11 02:21:37;;;;;;;45.72;20.70;;;-3.30;99.90;;;;;;5091661;28;20259;-58
2024/01/11 02:24:07;;;;;;;43.53;19.85;;;-3.30;99.90;;;;;;5091045;28;20251;-59
2024/01/11 02:26:35;;;;;;;40.90;18.73;;;-3.40;99.90;;;;;;5091460;28;20208;-59
2024/01/11 02:29:03;;;;;;;41.65;19.38;;;-3.40;99.90;;;;;;5090824;28;20224;-61
2024/01/11 02:31:31;;;;;;;46.75;20.63;;;-3.40;99.90;;;;;;5091694;28;20288;-57
2024/01/11 02:33:59;;;;;;;49.58;21.10;;;-3.40;99.90;;;;;;5091463;28;20212;-59
2024/01/11 02:36:27;;;;;;;40.65;20.08;;;-3.40;99.90;;;;;;5091733;28;20220;-59
2024/01/11 02:38:55;;;;;;;44.63;20.55;;;-3.40;99.90;;;;;;5091112;28;20256;-60
2024/01/11 02:41:24;;;;;;;46.25;20.00;;;-3.50;99.90;;;;;;5085580;28;20205;-58
2024/01/11 02:43:52;;;;;;;42.50;20.83;;;-3.50;99.90;;;;;;5089215;28;20207;-57
2024/01/11 02:46:20;;;;;;;38.67;20.20;;;-3.50;99.90;;;;;;5091026;28;20296;-58
2024/01/11 02:48:48;;;;;;;41.97;20.20;;;-3.50;99.90;;;;;;5090942;28;20256;-58
2024/01/11 02:51:16;;;;;;;41.95;20.52;;;-3.50;99.90;;;;;;5090507;28;20627;-58
2024/01/11 02:53:43;;;;;;;39.70;18.77;;;-3.50;99.90;;;;;;5091219;28;20287;-58
2024/01/11 02:56:11;;;;;;;42.60;19.67;;;-3.60;99.90;;;;;;5090308;28;20247;-57
2024/01/11 02:58:41;;;;;;;44.85;19.73;;;-3.60;99.90;;;;;;5090721;28;20204;-58
2024/01/11 03:01:09;;;;;;;41.38;19.17;;;-3.60;99.90;;;;;;5090709;28;20216;-57
2024/01/11 03:03:37;;;;;;;40.13;20.45;;;-3.70;99.90;;;;;;5090795;28;20210;-58
2024/01/11 03:06:05;;;;;;;43.53;20.67;;;-3.70;99.90;;;;;;5091576;28;20248;-57
2024/01/11 03:08:33;;;;;;;43.60;21.60;;;-3.70;99.90;;;;;;5090436;28;20269;-58
2024/01/11 03:11:01;;;;;;;42.03;19.77;;;-3.80;99.90;;;;;;5091053;28;20204;-57
2024/01/11 03:13:29;;;;;;;41.58;20.75;;;-3.80;99.90;;;;;;5091425;28;20204;-59
2024/01/11 03:15:59;;;;;;;47.00;21.10;;;-3.80;99.90;;;;;;5091030;28;20255;-57
2024/01/11 03:18:26;;;;;;;46.45;21.77;;;-3.80;99.90;;;;;;5084392;28;20273;-58
2024/01/11 03:20:54;;;;;;;44.67;19.88;;;-3.80;99.90;;;;;;5090975;28;20200;-58
2024/01/11 03:23:22;;;;;;;45.30;21.27;;;-3.80;99.90;;;;;;5090912;28;20228;-58
2024/01/11 03:25:50;;;;;;;45.25;20.15;;;-3.90;99.90;;;;;;5090349;28;20291;-58
2024/01/11 03:28:18;;;;;;;46.88;19.48;;;-3.90;99.90;;;;;;5090773;28;20250;-57
2024/01/11 03:30:46;;;;;;;41.67;20.23;;;-3.90;99.90;;;;;;5090633;28;20260;-58
2024/01/11 03:33:15;;;;;;;51.40;21.20;;;-3.90;99.90;;;;;;5082588;28;20207;-59
2024/01/11 03:35:44;;;;;;;40.05;18.65;;;-3.90;99.90;;;;;;5091048;28;20307;-58
2024/01/11 03:38:12;;;;;;;43.60;19.77;;;-4.00;99.90;;;;;;5090336;28;20231;-60
2024/01/11 03:40:40;;;;;;;44.78;20.73;;;-3.90;99.90;;;;;;5090385;28;20228;-57
2024/01/11 03:43:08;;;;;;;47.63;20.35;;;-4.00;99.90;;;;;;5090559;28;20205;-57
2024/01/11 03:45:35;;;;;;;45.00;19.85;;;-4.00;99.90;;;;;;5090815;28;20737;-57
2024/01/11 03:48:04;;;;;;;43.63;20.67;;;-4.00;99.90;;;;;;5090255;28;20623;-57
2024/01/11 03:50:33;;;;;;;43.97;19.80;;;-4.00;99.90;;;;;;5090508;28;20225;-57
2024/01/11 03:53:02;;;;;;;46.47;19.90;;;-4.00;99.90;;;;;;5090239;28;20596;-58
2024/01/11 03:55:30;;;;;;;40.88;19.05;;;-4.10;99.90;;;;;;5090535;28;20204;-58
2024/01/11 03:57:58;;;;;;;41.22;19.27;;;-4.10;99.90;;;;;;5090715;28;20250;-58
2024/01/11 04:00:26;;;;;;;45.13;21.23;;;-4.10;99.90;;;;;;5090780;28;20285;-57
2024/01/11 04:02:54;;;;;;;38.03;19.55;;;-4.10;99.90;;;;;;5091290;28;20273;-57
2024/01/11 04:05:22;;;;;;;44.55;19.55;;;-4.10;99.90;;;;;;5094260;28;20662;-58
2024/01/11 04:07:51;;;;;;;48.47;20.23;;;-4.10;99.90;;;;;;5094277;28;20258;-58
2024/01/11 04:10:19;;;;;;;49.15;20.50;;;-4.10;99.90;;;;;;5093661;28;20290;-58
2024/01/11 04:12:48;;;;;;;46.90;20.65;;;-4.10;99.90;;;;;;5093640;28;20747;-59
2024/01/11 04:15:16;;;;;;;45.13;20.02;;;-4.10;99.90;;;;;;5094017;28;20250;-57
2024/01/11 04:17:43;;;;;;;44.58;20.00;;;-4.10;99.90;;;;;;5094196;28;20233;-58
2024/01/11 04:20:12;;;;;;;44.95;20.30;;;-4.10;99.90;;;;;;5093748;28;20228;-58
2024/01/11 04:22:40;;;;;;;43.75;20.08;;;-4.20;99.90;;;;;;5093652;28;20296;-57
2024/01/11 04:25:10;;;;;;;47.42;20.77;;;-4.20;99.90;;;;;;5093565;28;20644;-58
2024/01/11 04:27:37;;;;;;;46.63;21.17;;;-4.20;99.90;;;;;;5093714;28;20648;-58
2024/01/11 04:30:07;;;;;;;46.25;19.85;;;-4.20;99.90;;;;;;5093576;28;20680;-59
2024/01/11 04:32:34;;;;;;;46.25;19.63;;;-4.20;99.90;;;;;;5093815;28;20204;-58
2024/01/11 04:35:03;;;;;;;42.00;19.67;;;-4.20;99.90;;;;;;5093618;28;20304;-58
2024/01/11 04:37:30;;;;;;;45.40;18.75;;;-4.20;99.90;;;;;;5093687;28;20224;-57
2024/01/11 04:39:59;;;;;;;45.03;20.58;;;-4.30;99.90;;;;;;5093032;28;20231;-58
2024/01/11 04:42:29;;;;;;;38.58;18.80;;;-4.30;99.90;;;;;;5094115;28;20196;-61
2024/01/11 04:44:57;;;;;;;41.92;18.75;;;-4.30;99.90;;;;;;5093461;28;20265;-60
2024/01/11 04:47:25;;;;;;;40.90;19.38;;;-4.30;99.90;;;;;;5089925;28;20654;-60
2024/01/11 04:49:53;;;;;;;42.70;20.23;;;-4.30;99.90;;;;;;5092752;28;20244;-60
2024/01/11 04:52:21;;;;;;;41.88;19.25;;;-4.30;99.90;;;;;;5093707;28;20228;-60
2024/01/11 04:54:48;;;;;;;42.75;19.30;;;-4.30;99.90;;;;;;5093080;28;20266;-61
2024/01/11 04:57:16;;;;;;;41.28;19.30;;;-4.30;99.90;;;;;;5093278;28;20263;-60
2024/01/11 04:59:45;;;;;;;43.85;18.85;;;-4.30;99.90;;;;;;5092570;28;20278;-60
2024/01/11 05:02:13;;;;;;;42.58;19.73;;;-4.30;99.90;;;;;;5092823;28;20234;-60
2024/01/11 05:04:41;;;;;;;46.40;20.80;;;-4.40;99.90;;;;;;5093242;28;20287;-61
2024/01/11 05:07:09;;;;;;;48.90;20.48;;;-4.40;99.90;;;;;;5093189;28;20269;-60
2024/01/11 05:09:37;;;;;;;43.17;19.65;;;-4.40;99.90;;;;;;5092313;28;20802;-61
2024/01/11 05:12:06;;;;;;;41.28;20.23;;;-4.40;99.90;;;;;;5092617;28;20287;-60
2024/01/11 05:14:34;;;;;;;40.45;19.90;;;-4.40;99.90;;;;;;5091834;28;20678;-60
2024/01/11 05:17:03;;;;;;;38.72;18.38;;;-4.40;99.90;;;;;;5092975;28;20674;-57
2024/01/11 05:19:31;;;;;;;40.45;19.05;;;-4.40;99.90;;;;;;5083295;28;20606;-59
2024/01/11 05:21:59;;;;;;;41.10;19.58;;;-4.50;99.90;;;;;;5085233;28;20201;-58
2024/01/11 05:24:27;;;;;;;44.38;20.35;;;-4.50;99.90;;;;;;5089280;28;20205;-60
2024/01/11 05:26:55;;;;;;;43.35;20.52;;;-4.50;99.90;;;;;;5091007;28;20345;-60
2024/01/11 05:29:23;;;;;;;46.63;20.05;;;-4.50;99.90;;;;;;5091318;28;20295;-58
2024/01/11 05:31:50;;;;;;;44.47;19.85;;;-4.60;99.90;;;;;;5092677;28;20205;-58
2024/01/11 05:34:20;;;;;;;49.67;21.15;;;-4.60;99.90;;;;;;5092336;28;20197;-58
2024/01/11 05:36:48;;;;;;;45.25;21.25;;;-4.60;99.90;;;;;;5090038;28;20252;-58
2024/01/11 05:39:16;;;;;;;51.38;21.75;;;-4.60;99.90;;;;;;5088365;28;20240;-58
2024/01/11 05:41:44;;;;;;;42.30;19.67;;;-4.60;99.90;;;;;;5092333;28;20236;-59
2024/01/11 05:44:12;;;;;;;46.13;20.95;;;-4.60;99.90;;;;;;5091337;28;20261;-58
2024/01/11 05:46:40;;;;;;;49.92;21.88;;;-4.60;99.90;;;;;;5092265;28;20543;-57
2024/01/11 05:49:08;;;;;;;43.83;20.33;;;-4.60;99.90;;;;;;5092008;28;20224;-57
2024/01/11 05:51:37;;;;;;;41.30;20.02;;;-4.60;99.90;;;;;;5090323;28;20208;-58
2024/01/11 05:54:05;;;;;;;44.85;20.35;;;-4.60;99.90;;;;;;5091550;28;20247;-62
2024/01/11 05:56:33;;;;;;;47.63;19.70;;;-4.60;99.90;;;;;;5085132;28;20265;-59
2024/01/11 05:59:01;;;;;;;43.28;21.00;;;-4.70;99.90;;;;;;5091634;28;20235;-58
2024/01/11 06:01:29;;;;;;;39.72;20.08;;;-4.70;99.90;;;;;;5090702;28;20207;-59
2024/01/11 06:03:57;;;;;;;43.50;20.33;;;-4.70;99.90;;;;;;5088518;28;20212;-58
2024/01/11 06:06:25;;;;;;;41.47;20.70;;;-4.70;99.90;;;;;;5083942;28;20200;-58
2024/01/11 06:08:54;;;;;;;49.17;20.90;;;-4.70;99.90;;;;;;5091422;28;20312;-58
2024/01/11 06:11:22;;;;;;;45.13;19.30;;;-4.70;99.90;;;;;;5090055;28;20235;-59
2024/01/11 06:13:50;;;;;;;46.33;20.30;;;-4.70;99.90;;;;;;5085957;28;20211;-58
2024/01/11 06:16:18;;;;;;;41.47;19.25;;;-4.70;99.90;;;;;;5091763;28;20213;-58
2024/01/11 06:18:46;;;;;;;47.90;20.45;;;-4.70;99.90;;;;;;5091073;28;20283;-59
2024/01/11 06:21:15;;;;;;;49.05;21.48;;;-4.70;99.90;;;;;;5091382;28;20681;-60
2024/01/11 06:23:43;;;;;;;44.83;20.48;;;-4.80;99.90;;;;;;5089916;28;20320;-60
2024/01/11 06:26:12;;;;;;;44.70;20.33;;;-4.70;99.90;;;;;;5090697;28;20337;-58
2024/01/11 06:28:40;;;;;;;40.75;20.30;;;-4.70;99.90;;;;;;5090177;28;20212;-59
2024/01/11 06:31:10;;;;;;;43.75;20.38;;;-4.80;99.90;;;;;;5090273;28;20204;-58
2024/01/11 06:33:37;;;;;;;49.60;20.58;;;-4.80;99.90;;;;;;5090987;28;20584;-60
2024/01/11 06:36:07;;;;;;;46.65;21.30;;;-2.20;99.90;;;;;;5091463;28;20220;-55
2024/01/11 06:38:35;;;;;;;43.28;19.75;;;0.10;99.90;;;;;;5091312;28;20224;-58
2024/01/11 06:41:03;;;;;;;44.85;20.70;;;0.40;99.90;;;;;;5081722;28;20197;-59
2024/01/11 06:43:32;;;;;;;45.22;19.95;;;-0.20;99.90;;;;;;5091379;28;20211;-58
2024/01/11 06:46:03;;;;;;;41.30;20.63;;;-0.90;99.90;;;;;;5091488;28;20288;-60
2024/01/11 06:48:31;;;;;;;46.63;21.13;;;-1.60;99.90;;;;;;5090324;28;20196;-56
2024/01/11 06:50:59;;;;;;;45.35;21.55;;;-2.20;99.90;;;;;;5089237;28;20209;-58
2024/01/11 06:53:29;;;;;;;49.28;22.60;;;-2.70;99.90;;;;;;5091166;28;21182;-59
2024/01/11 06:55:57;;;;;;;45.38;20.83;;;-3.10;99.90;;;;;;5094268;28;20219;-58
2024/01/11 06:58:25;;;;;;;46.65;20.98;;;-3.40;99.90;;;;;;5090206;28;20220;-57
2024/01/11 07:00:54;;;;;;;47.97;21.27;;;-3.60;99.90;;;;;;5089924;28;20232;-60
2024/01/11 07:03:22;;;;;;;45.85;20.83;;;-3.80;99.90;;;;;;5090989;28;20211;-59
2024/01/11 07:05:50;;;;;;;45.35;20.98;;;-3.90;99.90;;;;;;5091033;28;20653;-60
2024/01/11 07:08:18;;;;;;;52.28;22.15;;;-4.00;99.90;;;;;;5090911;28;20225;-60
2024/01/11 07:10:46;;;;;;;46.28;23.42;;;-4.10;99.90;;;;;;5089817;28;20225;-62
2024/01/11 07:13:18;;;;;;;57.20;26.42;;;-4.10;99.90;;;;;;5082597;28;20204;-62
2024/01/11 07:15:47;;;;;;;50.55;24.60;;;-4.20;99.90;;;;;;5090500;28;20205;-62
2024/01/11 07:18:16;;;;;;;52.63;24.58;;;-4.20;99.90;;;;;;5089411;28;20649;-62
2024/01/11 07:20:44;;;;;;;56.30;24.33;;;-4.30;99.90;;;;;;5088982;28;20725;-62
2024/01/11 07:23:12;;;;;;;50.88;24.30;;;-4.30;99.90;;;;;;5090771;28;20205;-62
2024/01/11 07:25:40;;;;;;;47.22;22.20;;;-4.30;99.90;;;;;;5090875;28;20208;-62
2024/01/11 07:28:08;;;;;;;53.05;25.00;;;-4.40;99.90;;;;;;5090872;28;20250;-62
2024/01/11 07:30:36;;;;;;;53.35;24.05;;;-4.40;99.90;;;;;;5090686;28;20315;-62
2024/01/11 07:33:04;;;;;;;53.20;24.10;;;-4.40;99.90;;;;;;5091204;28;20671;-62
2024/01/11 07:35:34;;;;;;;50.67;23.35;;;-4.50;99.90;;;;;;5091075;28;20219;-62
2024/01/11 07:38:02;;;;;;;57.28;24.75;;;-4.50;99.90;;;;;;5092548;28;20274;-62
2024/01/11 07:40:30;;;;;;;58.90;24.80;;;-4.50;99.90;;;;;;5094226;28;20315;-62
2024/01/11 07:43:03;;;;;;;65.00;27.13;;;-4.50;99.90;;;;;;5095076;28;20232;-62
2024/01/11 07:45:31;;;;;;;53.67;23.63;;;-4.50;99.90;;;;;;5095020;28;20207;-62
2024/01/11 07:47:59;;;;;;;53.33;24.60;;;-4.40;99.90;;;;;;5094766;28;20205;-62
2024/01/11 07:50:27;;;;;;;54.78;25.95;;;-4.50;99.90;;;;;;5093869;28;20224;-62
2024/01/11 07:52:57;;;;;;;57.55;26.13;;;-4.50;99.90;;;;;;5094047;28;20200;-61
2024/01/11 07:55:26;;;;;;;57.80;25.48;;;-4.50;99.90;;;;;;5094472;28;20243;-62
2024/01/11 07:57:54;;;;;;;55.65;25.10;;;-4.50;99.90;;;;;;5094526;28;20212;-62
2024/01/11 08:00:23;;;;;;;56.78;23.92;;;-4.50;99.90;;;;;;5093831;28;20224;-62
2024/01/11 08:02:51;;;;;;;55.28;24.27;;;-4.50;99.90;;;;;;5094370;28;20259;-62
2024/01/11 08:05:19;;;;;;;63.55;25.92;;;-4.50;99.90;;;;;;5094329;28;20868;-62
2024/01/11 08:07:47;;;;;;;65.15;27.55;;;-4.50;99.90;;;;;;5094476;28;20389;-62
2024/01/11 08:10:16;;;;;;;59.28;26.70;;;-4.50;99.90;;;;;;5094111;28;20717;-62
2024/01/11 08:12:44;;;;;;;54.35;25.92;;;-4.50;99.90;;;;;;5094616;28;20254;-62
2024/01/11 08:15:13;;;;;;;64.00;26.45;;;-4.40;99.90;;;;;;5094693;28;20205;-62
2024/01/11 08:17:44;;;;;;;57.63;26.20;;;-4.40;99.90;;;;;;5094480;28;20266;-62
2024/01/11 08:20:15;;;;;;;70.93;28.17;;;-4.40;99.90;;;;;;5093697;28;20234;-62
2024/01/11 08:22:45;;;;;;;60.85;27.08;;;-4.40;99.90;;;;;;5094397;28;20227;-62
2024/01/11 08:25:14;;;;;;;122.05;41.53;;;-4.40;99.90;;;;;;5094037;28;20232;-62
2024/01/11 08:27:43;;;;;;;107.78;36.97;;;-4.40;99.90;;;;;;5094247;28;20216;-62
2024/01/11 08:30:12;;;;;;;74.43;30.05;;;-4.40;99.90;;;;;;5093727;28;20224;-62
2024/01/11 08:32:41;;;;;;;74.28;31.88;;;-4.40;99.90;;;;;;5093790;28;20205;-62
2024/01/11 08:35:11;;;;;;;72.25;28.45;;;-4.30;99.90;;;;;;5093760;28;20234;-62
2024/01/11 08:37:39;;;;;;;68.40;29.17;;;-4.30;99.90;;;;;;5094068;28;20257;-62
2024/01/11 08:40:09;;;;;;;60.33;27.35;;;-4.30;99.90;;;;;;5093184;28;20277;-62
2024/01/11 08:42:37;;;;;;;58.67;25.42;;;-4.20;99.90;;;;;;5093888;28;20341;-62
2024/01/11 08:45:08;;;;;;;57.72;26.20;;;-4.20;99.90;;;;;;5093481;28;20262;-61
2024/01/11 08:47:38;;;;;;;61.05;27.23;;;-4.10;99.90;;;;;;5093880;28;20204;-62
2024/01/11 08:50:07;;;;;;;60.28;27.00;;;-4.10;99.90;;;;;;5091859;28;20220;-61
2024/01/11 08:52:35;;;;;;;59.78;25.73;;;-4.00;99.90;;;;;;5085727;28;20662;-62
2024/01/11 08:55:04;;;;;;;62.05;27.23;;;-3.90;99.90;;;;;;5094024;28;20257;-62
2024/01/11 08:57:32;;;;;;;57.25;26.88;;;-3.80;99.90;;;;;;5093634;28;20575;-62
2024/01/11 09:00:00;;;;;;;61.58;25.50;;;-3.70;99.90;;;;;;5089973;28;20294;-62
2024/01/11 09:02:29;;;;;;;60.90;28.52;;;-3.70;99.90;;;;;;5092879;28;20212;-62
2024/01/11 09:04:57;;;;;;;57.55;26.98;;;-3.60;99.90;;;;;;5093000;28;20640;-62
2024/01/11 09:07:25;;;;;;;66.97;28.70;;;-3.50;99.90;;;;;;5093239;28;20696;-62
2024/01/11 09:09:54;;;;;;;70.55;27.50;;;-3.40;99.90;;;;;;5091740;28;20225;-61
2024/01/11 09:12:24;;;;;;;55.60;26.40;;;-3.30;99.90;;;;;;5092494;28;20223;-62
2024/01/11 09:14:52;;;;;;;60.95;26.63;;;-3.20;99.90;;;;;;5092704;28;20208;-62
2024/01/11 09:17:21;;;;;;;58.58;27.92;;;-3.00;99.90;;;;;;5093076;28;20257;-62
2024/01/11 09:19:51;;;;;;;68.63;28.83;;;-2.90;99.90;;;;;;5091623;28;20686;-62
2024/01/11 09:22:19;;;;;;;64.50;28.23;;;-2.70;99.90;;;;;;5092806;28;20204;-62
2024/01/11 09:24:47;;;;;;;73.00;28.77;;;-2.60;99.90;;;;;;5092173;28;20254;-63
2024/01/11 09:27:15;;;;;;;65.35;27.45;;;-2.50;99.90;;;;;;5092427;28;20232;-62
2024/01/11 09:29:46;;;;;;;68.22;27.73;;;-2.40;99.90;;;;;;5091458;28;20221;-62
2024/01/11 09:32:14;;;;;;;60.58;27.20;;;-2.20;99.90;;;;;;5092010;28;20583;-63
2024/01/11 09:34:45;;;;;;;62.72;28.45;;;-2.10;99.90;;;;;;5092053;28;20208;-63
2024/01/11 09:37:14;;;;;;;60.42;28.05;;;-2.00;99.90;;;;;;5092282;28;20671;-63
2024/01/11 09:39:43;;;;;;;64.82;28.38;;;-1.90;99.90;;;;;;5091130;28;20607;-63
2024/01/11 09:42:11;;;;;;;60.72;28.45;;;-1.90;99.90;;;;;;5091929;28;20212;-62
2024/01/11 09:44:39;;;;;;;66.30;28.77;;;-1.80;99.90;;;;;;5091260;28;20205;-62
2024/01/11 09:47:09;;;;;;;66.85;28.65;;;-1.80;99.90;;;;;;5092566;28;20224;-63
2024/01/11 09:49:40;;;;;;;67.15;31.15;;;-1.70;99.90;;;;;;5084701;28;20339;-60
2024/01/11 09:52:10;;;;;;;67.38;30.35;;;-1.60;99.90;;;;;;5092828;28;20297;-60
2024/01/11 09:54:40;;;;;;;70.85;29.63;;;-1.60;99.90;;;;;;5092539;28;20212;-60
2024/01/11 09:57:09;;;;;;;70.45;30.35;;;-1.50;99.90;;;;;;5092450;28;20205;-60
2024/01/11 09:59:37;;;;;;;68.45;29.85;;;-1.40;99.90;;;;;;5091823;28;20581;-60
2024/01/11 10:02:08;;;;;;;62.72;29.92;;;-1.30;99.90;;;;;;5091244;28;20208;-60
2024/01/11 10:04:37;;;;;;;66.60;30.35;;;-1.20;99.90;;;;;;5092016;28;20519;-60
2024/01/11 10:07:05;;;;;;;65.03;29.10;;;-0.90;99.90;;;;;;5092394;28;20282;-61
2024/01/11 10:09:33;;;;;;;69.15;31.80;;;-0.60;99.90;;;;;;5091684;28;20236;-60
2024/01/11 10:12:03;;;;;;;63.78;30.10;;;-0.10;99.90;;;;;;5091697;28;20251;-61
2024/01/11 10:14:31;;;;;;;69.32;30.15;;;0.30;99.90;;;;;;5091923;28;20212;-61
2024/01/11 10:17:00;;;;;;;61.65;27.95;;;0.60;99.90;;;;;;5092121;28;20283;-60
2024/01/11 10:19:27;;;;;;;66.72;30.30;;;0.80;99.90;;;;;;5083524;28;20252;-60
2024/01/11 10:21:56;;;;;;;67.45;29.65;;;0.80;99.90;;;;;;5086017;28;20201;-61
2024/01/11 10:24:26;;;;;;;67.60;30.83;;;1.00;99.90;;;;;;5088476;28;20208;-60
2024/01/11 10:26:56;;;;;;;59.45;30.27;;;1.20;99.90;;;;;;5092049;28;20283;-60
2024/01/11 10:29:29;;;;;;;62.40;29.17;;;1.30;99.90;;;;;;5091251;28;20255;-60
2024/01/11 10:31:57;;;;;;;65.10;31.13;;;1.40;99.90;;;;;;5092154;28;20204;-61
2024/01/11 10:34:25;;;;;;;74.32;31.95;;;1.50;99.90;;;;;;5091423;28;20670;-61
2024/01/11 10:36:53;;;;;;;65.40;31.20;;;1.50;99.90;;;;;;5091863;28;20205;-60
2024/01/11 10:39:22;;;;;;;58.85;29.40;;;1.50;99.90;;;;;;5090898;28;20257;-60
2024/01/11 10:41:52;;;;;;;60.33;31.17;;;1.50;99.90;;;;;;5093044;22;20267;-57
2024/01/11 10:44:21;;;;;;;67.43;30.35;;;1.50;99.90;;;;;;5051442;28;20252;-60
2024/01/11 10:46:51;;;;;;;61.35;29.77;;;1.60;99.90;;;;;;5051677;28;20217;-60
2024/01/11 10:49:19;;;;;;;69.20;31.33;;;1.60;99.90;;;;;;5050939;28;20205;-60
2024/01/11 10:51:58;;;;;;;60.63;30.15;;;1.60;99.90;;;;;;5051449;28;20225;-60
2024/01/11 10:54:28;;;;;;;69.07;30.42;;;1.80;99.90;;;;;;5050888;28;20244;-58
2024/01/11 10:56:56;;;;;;;60.97;29.27;;;1.90;99.90;;;;;;5051578;28;20209;-57
2024/01/11 10:59:25;;;;;;;62.53;28.15;;;2.00;99.90;;;;;;5050457;28;20237;-58
2024/01/11 11:01:56;;;;;;;69.50;29.95;;;2.10;99.90;;;;;;5051011;28;20308;-57
2024/01/11 11:04:24;;;;;;;61.97;30.70;;;2.20;99.90;;;;;;5050637;28;20229;-57
2024/01/11 11:06:52;;;;;;;61.92;30.02;;;2.20;99.90;;;;;;5050762;28;20205;-57
2024/01/11 11:09:21;;;;;;;64.80;29.58;;;2.10;99.90;;;;;;5051019;28;20206;-57
2024/01/11 11:11:49;;;;;;;58.30;29.02;;;2.00;99.90;;;;;;5051253;28;20222;-58
2024/01/11 11:14:17;;;;;;;60.53;29.73;;;1.90;99.90;;;;;;5053519;28;20205;-58
2024/01/11 11:16:45;;;;;;;56.17;28.85;;;1.80;99.90;;;;;;5054616;28;20248;-58
2024/01/11 11:19:15;;;;;;;60.13;29.52;;;1.80;99.90;;;;;;5054794;28;20210;-58
2024/01/11 11:21:43;;;;;;;62.60;30.50;;;1.90;99.90;;;;;;5055372;28;20299;-58
2024/01/11 11:24:11;;;;;;;66.05;30.05;;;2.00;99.90;;;;;;5055120;28;20263;-58
2024/01/11 11:26:39;;;;;;;62.78;29.10;;;2.00;99.90;;;;;;5055061;28;20704;-58
2024/01/11 11:29:07;;;;;;;67.53;30.15;;;2.10;99.90;;;;;;5054890;28;20296;-58
2024/01/11 11:31:38;;;;;;;59.58;28.85;;;2.10;99.90;;;;;;5054709;28;20221;-58
2024/01/11 11:34:06;;;;;;;62.42;29.90;;;2.10;99.90;;;;;;5055182;28;20267;-58
2024/01/11 11:36:35;;;;;;;62.90;28.65;;;2.00;99.90;;;;;;5054488;28;20213;-58
2024/01/11 11:39:04;;;;;;;60.80;28.42;;;2.00;99.90;;;;;;5054844;28;20789;-58
2024/01/11 11:41:32;;;;;;;61.70;29.77;;;1.90;99.90;;;;;;5054120;28;20226;-58
2024/01/11 11:44:04;;;;;;;58.88;28.63;;;1.80;99.90;;;;;;5054740;28;20202;-59
2024/01/11 11:46:33;;;;;;;53.45;26.33;;;1.70;99.90;;;;;;5054160;28;20209;-58
2024/01/11 11:49:00;;;;;;;52.95;26.55;;;1.60;99.90;;;;;;5054358;28;20205;-58
2024/01/11 11:51:28;;;;;;;55.40;25.65;;;1.60;99.90;;;;;;5054007;28;20738;-59
2024/01/11 11:53:58;;;;;;;52.90;26.58;;;1.50;99.90;;;;;;5052353;28;20221;-58
2024/01/11 11:56:26;;;;;;;58.25;27.63;;;1.50;99.90;;;;;;5053348;28;20202;-59
2024/01/11 11:58:54;;;;;;;59.92;28.02;;;1.50;99.90;;;;;;5050004;28;20217;-59
2024/01/11 12:01:23;;;;;;;53.15;26.73;;;1.50;99.90;;;;;;5053699;28;20225;-58
2024/01/11 12:03:51;;;;;;;57.88;27.95;;;1.50;99.90;;;;;;5053351;28;20202;-58
2024/01/11 12:06:20;;;;;;;56.42;27.35;;;1.50;99.90;;;;;;5052819;28;20295;-58
2024/01/11 12:08:48;;;;;;;33.28;15.63;;;1.50;99.90;;;;;;5053045;28;20208;-57
2024/01/11 12:11:20;;;;;;;45.30;20.98;;;2.40;99.90;;;;;;5053068;28;20309;-58
2024/01/11 12:13:48;;;;;;;49.60;26.20;;;4.40;99.90;;;;;;5043744;28;20206;-59
2024/01/11 12:16:16;;;;;;;45.95;24.80;;;5.50;99.90;;;;;;5048284;28;20252;-58
2024/01/11 12:18:44;;;;;;;47.42;24.60;;;5.50;99.90;;;;;;5052817;28;20283;-59
2024/01/11 12:21:12;;;;;;;52.33;25.17;;;5.10;99.90;;;;;;5053208;28;20225;-58
2024/01/11 12:23:40;;;;;;;46.00;24.35;;;4.50;99.90;;;;;;5052975;28;20683;-59
2024/01/11 12:26:12;;;;;;;46.40;25.80;;;4.00;99.90;;;;;;5052449;28;20329;-58
2024/01/11 12:28:43;;;;;;;49.55;24.38;;;3.70;99.90;;;;;;5052622;28;20252;-59
2024/01/11 12:31:13;;;;;;;44.83;24.88;;;3.50;99.90;;;;;;5053128;28;20304;-58
2024/01/11 12:33:41;;;;;;;50.58;24.08;;;3.30;99.90;;;;;;5053465;28;20202;-58